Terminal Aerodrome Forecast
Issued by NWS Sioux Falls, SD

Home | Current Version | Previous Version | Text Only | Print | Product List | Glossary Off
Versions: 1 2 3 4 5 6 7 8 9 10 11 12 13 14 15 16 17 18 19 20

000
FTUS43 KFSD 241016 AAA
TAFFSD
TAF AMD
KFSD 241016Z 2410/2506 14012KT P6SM OVC010
     FM241300 13015G21KT P6SM OVC009
     FM241500 14015G20KT P6SM OVC011
      TEMPO 2415/2417 P6SM -RA BKN015
     FM241700 14014G21KT 5SM -RA BR OVC018
     FM242300 13013KT 6SM -RA BKN015
     FM250100 14008KT P6SM SCT015=

USA.gov is the U.S. government's official web portal to all federal, state and local government web resources and services.